Terminal Aerodrome Forecast
Issued by NWS Upton, NY

Home | Current Version | Previous Version | Text Only | Print | Product List | Glossary On
Versions: 1 2 3 4 5 6 7 8 9 10 11 12 13 14 15 16 17 18 19 20 21 22 23 24 25 26 27 28 29 30 31
634
FTUS41 KOKX 101440 AAA
TAFLGA
TAF AMD
KLGA 101440Z 1015/1112 29011G19KT P6SM SCT040 SCT200
     FM101700 29013G20KT P6SM BKN050
     FM110000 30013KT P6SM SCT050
     FM110600 31008KT P6SM SCT250
     FM111000 32007KT P6SM BKN100=

USA.gov is the U.S. government's official web portal to all federal, state and local government web resources and services.